createdAt,value
2022-09-07T00:00:54.823Z,1.00
2022-09-07T00:03:22.675Z,1.67
2022-09-07T00:05:51.703Z,1.40
2022-09-07T00:08:22.241Z,1.15
2022-09-07T00:11:06.485Z,0.98
2022-09-07T00:13:38.064Z,1.17
2022-09-07T00:16:14.467Z,1.30
2022-09-07T00:18:45.768Z,1.35
2022-09-07T00:21:18.408Z,1.40
2022-09-07T00:23:45.774Z,1.50
2022-09-07T00:26:25.100Z,1.10
2022-09-07T00:28:53.094Z,1.65
2022-09-07T00:31:23.606Z,1.15
2022-09-07T00:33:53.020Z,1.40
2022-09-07T00:36:22.385Z,1.60
2022-09-07T00:38:49.866Z,1.02
2022-09-07T00:41:19.093Z,1.13
2022-09-07T00:43:54.408Z,1.60
2022-09-07T00:46:32.241Z,1.45
2022-09-07T00:49:10.806Z,1.35
2022-09-07T00:51:57.765Z,1.30
2022-09-07T00:54:33.995Z,1.30
2022-09-07T00:57:01.307Z,1.17
2022-09-07T00:59:37.639Z,1.50
2022-09-07T01:02:05.900Z,1.88
2022-09-07T01:04:34.295Z,1.30
2022-09-07T01:07:03.783Z,1.30
2022-09-07T01:09:31.075Z,1.45
2022-09-07T01:12:00.786Z,1.25
2022-09-07T01:14:35.470Z,1.05
2022-09-07T01:17:33.058Z,1.50
2022-09-07T01:20:21.711Z,1.48
2022-09-07T01:23:28.709Z,0.98
2022-09-07T01:26:13.536Z,1.48
2022-09-07T01:28:42.636Z,1.23
2022-09-07T01:31:36.022Z,1.35
2022-09-07T01:34:35.309Z,1.00
2022-09-07T01:37:22.727Z,1.15
2022-09-07T01:40:03.533Z,1.30
2022-09-07T01:45:12.857Z,1.00
2022-09-07T01:47:47.163Z,1.10
2022-09-07T01:50:50.207Z,1.40
2022-09-07T01:53:28.483Z,1.23
2022-09-07T01:56:01.738Z,1.67
2022-09-07T01:58:38.226Z,1.60
2022-09-07T02:01:28.491Z,1.40
2022-09-07T02:04:21.322Z,1.15
2022-09-07T02:07:21.644Z,1.02
2022-09-07T02:09:59.420Z,0.95
2022-09-07T02:13:07.092Z,1.13
2022-09-07T02:16:09.922Z,1.30
2022-09-07T02:18:49.696Z,1.88
2022-09-07T02:21:26.264Z,1.50
2022-09-07T02:24:06.278Z,1.80
2022-09-07T02:26:39.652Z,1.47
2022-09-07T02:29:07.913Z,1.05
2022-09-07T02:31:34.994Z,1.52
2022-09-07T02:34:02.067Z,1.30
2022-09-07T02:36:36.478Z,1.55
2022-09-07T02:39:03.606Z,1.17
2022-09-07T02:41:41.456Z,1.25
2022-09-07T02:44:21.372Z,0.90
2022-09-07T02:47:19.077Z,1.42
2022-09-07T02:50:36.262Z,0.90
2022-09-07T02:53:18.093Z,1.10
2022-09-07T02:56:06.323Z,1.00
2022-09-07T02:59:22.948Z,1.15
2022-09-07T03:02:31.446Z,1.35
2022-09-07T03:05:24.499Z,1.10
2022-09-07T03:08:04.159Z,1.02
2022-09-07T03:10:32.744Z,1.30
2022-09-07T03:12:59.660Z,0.98
2022-09-07T03:15:28.011Z,1.05
2022-09-07T03:17:55.084Z,1.27
2022-09-07T03:20:23.049Z,1.02
2022-09-07T03:22:52.488Z,1.00
2022-09-07T03:25:20.132Z,1.20
2022-09-07T03:27:47.093Z,1.30
2022-09-07T03:30:14.626Z,0.80
2022-09-07T03:32:41.686Z,1.00
2022-09-07T03:35:09.503Z,1.23
2022-09-07T03:37:37.853Z,1.08
2022-09-07T03:40:09.232Z,1.30
2022-09-07T03:42:37.256Z,1.00
2022-09-07T03:45:06.544Z,0.85
2022-09-07T03:47:38.091Z,1.27
2022-09-07T03:50:06.696Z,1.10
2022-09-07T03:52:35.310Z,1.25
2022-09-07T03:55:02.472Z,1.02
2022-09-07T03:57:29.425Z,0.90
2022-09-07T03:59:56.285Z,1.05
2022-09-07T04:02:23.325Z,1.98
2022-09-07T04:04:50.289Z,0.95
2022-09-07T04:07:17.310Z,1.10
2022-09-07T04:09:44.202Z,1.02
2022-09-07T04:12:11.122Z,0.85
2022-09-07T04:14:37.987Z,1.10
2022-09-07T04:17:04.975Z,1.20
2022-09-07T04:19:32.058Z,1.10
2022-09-07T04:21:58.963Z,1.95
2022-09-07T04:24:26.015Z,0.95
2022-09-07T04:26:53.067Z,1.10
2022-09-07T04:29:20.012Z,0.85
2022-09-07T04:31:46.921Z,0.80
2022-09-07T04:34:15.086Z,1.13
2022-09-07T04:36:42.083Z,0.75
2022-09-07T04:39:11.213Z,0.90
2022-09-07T04:41:38.157Z,1.13
2022-09-07T04:44:05.436Z,0.90
2022-09-07T04:46:37.329Z,1.08
2022-09-07T04:49:08.648Z,1.15
2022-09-07T04:51:36.759Z,0.98
2022-09-07T04:54:04.791Z,1.02
2022-09-07T04:56:32.957Z,1.25
2022-09-07T04:59:01.965Z,0.88
2022-09-07T05:01:29.730Z,0.90
2022-09-07T05:03:56.710Z,1.00
2022-09-07T05:06:24.235Z,1.15
2022-09-07T05:08:53.928Z,1.00
2022-09-07T05:11:28.819Z,0.98
2022-09-07T05:14:01.565Z,1.00
2022-09-07T05:16:29.802Z,0.98
2022-09-07T05:19:02.931Z,1.13
2022-09-07T05:21:33.675Z,0.88
2022-09-07T05:24:01.881Z,1.15
2022-09-07T05:26:33.132Z,0.80
2022-09-07T05:31:51.018Z,1.08
2022-09-07T05:34:33.432Z,0.98
2022-09-07T05:37:01.720Z,1.10
2022-09-07T05:39:29.505Z,0.98
2022-09-07T05:41:56.670Z,0.88
2022-09-07T05:47:11.171Z,0.65
2022-09-07T05:49:38.173Z,0.80
2022-09-07T05:52:05.211Z,1.20
2022-09-07T05:54:32.173Z,1.63
2022-09-07T05:56:59.053Z,1.38
2022-09-07T05:59:25.942Z,0.73
2022-09-07T06:01:52.849Z,1.00
2022-09-07T06:04:19.897Z,0.80
2022-09-07T06:06:59.365Z,1.00
2022-09-07T06:09:34.135Z,0.85
2022-09-07T06:12:04.605Z,0.80
2022-09-07T06:14:34.698Z,0.82
2022-09-07T06:17:01.623Z,0.93
2022-09-07T06:19:28.518Z,0.73
2022-09-07T06:21:55.480Z,1.08
2022-09-07T06:24:22.353Z,0.80
2022-09-07T06:26:49.250Z,0.82
2022-09-07T06:29:16.464Z,1.00
2022-09-07T06:34:30.485Z,0.88
2022-09-07T06:36:57.418Z,0.90
2022-09-07T06:39:24.437Z,1.27
2022-09-07T06:44:25.372Z,0.77
2022-09-07T06:47:07.741Z,1.45
2022-09-07T06:49:34.870Z,1.33
2022-09-07T06:52:01.969Z,1.35
2022-09-07T06:57:16.321Z,1.05
2022-09-07T06:59:45.772Z,0.85
2022-09-07T07:02:15.952Z,1.00
2022-09-07T07:04:42.842Z,0.80
2022-09-07T07:07:14.145Z,0.90
2022-09-07T07:09:42.304Z,1.20
2022-09-07T07:12:10.802Z,0.80
2022-09-07T07:14:40.940Z,0.95
2022-09-07T07:17:11.144Z,1.00
2022-09-07T07:19:38.093Z,1.15
2022-09-07T07:22:18.601Z,0.98
2022-09-07T07:24:51.867Z,0.68
2022-09-07T07:27:18.789Z,1.00
2022-09-07T07:29:46.076Z,1.20
2022-09-07T07:32:13.172Z,0.93
2022-09-07T07:34:40.089Z,1.00
2022-09-07T07:37:07.006Z,0.80
2022-09-07T07:42:21.203Z,0.82
2022-09-07T07:44:48.699Z,1.00
2022-09-07T07:47:15.853Z,0.70
2022-09-07T07:49:42.922Z,0.77
2022-09-07T07:54:56.687Z,0.70
2022-09-07T07:57:23.613Z,1.05
2022-09-07T07:59:50.494Z,1.08
2022-09-07T08:02:17.998Z,0.95
2022-09-07T08:04:44.962Z,1.15
2022-09-07T08:07:12.505Z,0.75
2022-09-07T08:09:41.707Z,0.63
2022-09-07T08:12:12.156Z,0.73
2022-09-07T08:17:13.410Z,0.85
2022-09-07T08:19:40.963Z,0.80
2022-09-07T08:22:10.778Z,1.00
2022-09-07T08:24:38.105Z,0.60
2022-09-07T08:27:05.313Z,0.80
2022-09-07T08:29:34.624Z,0.90
2022-09-07T08:32:05.025Z,0.90
2022-09-07T08:34:32.151Z,0.88
2022-09-07T08:36:59.194Z,0.60
2022-09-07T08:39:26.238Z,0.90
2022-09-07T08:42:37.130Z,0.75
2022-09-07T08:45:31.900Z,0.73
2022-09-07T08:47:59.083Z,0.63
2022-09-07T08:50:45.701Z,0.73
2022-09-07T08:53:19.490Z,0.80
2022-09-07T08:55:58.318Z,0.70
2022-09-07T08:58:51.172Z,0.60
2022-09-07T09:01:34.594Z,0.80
2022-09-07T09:04:19.039Z,0.75
2022-09-07T09:07:07.006Z,0.60
2022-09-07T09:09:55.198Z,0.63
2022-09-07T09:13:04.886Z,0.82
2022-09-07T09:15:40.415Z,0.90
2022-09-07T09:18:57.621Z,0.50
2022-09-07T09:21:26.993Z,0.55
2022-09-07T09:24:02.333Z,0.50
2022-09-07T09:26:33.930Z,0.77
2022-09-07T09:29:23.418Z,0.63
2022-09-07T09:31:50.283Z,0.85
2022-09-07T09:34:23.814Z,0.90
2022-09-07T09:36:55.981Z,0.52
2022-09-07T09:39:36.835Z,0.52
2022-09-07T09:42:22.125Z,0.80
2022-09-07T09:44:50.015Z,0.50
2022-09-07T09:47:37.934Z,0.50
2022-09-07T09:54:06.117Z,0.38
2022-09-07T09:56:38.882Z,0.47
2022-09-07T10:05:28.921Z,0.65
2022-09-07T10:07:56.798Z,0.50
2022-09-07T10:10:25.971Z,0.47
2022-09-07T10:12:55.054Z,0.60
2022-09-07T10:15:39.629Z,0.30
2022-09-07T10:18:21.535Z,0.35
2022-09-07T10:20:48.896Z,0.30
2022-09-07T10:23:25.247Z,0.30
2022-09-07T10:25:52.206Z,0.40
2022-09-07T10:28:23.998Z,0.82
2022-09-07T10:31:22.059Z,0.70
2022-09-07T10:37:11.695Z,0.40
2022-09-07T10:39:49.294Z,0.70
2022-09-07T10:46:01.776Z,0.47
2022-09-07T10:49:05.017Z,0.60
2022-09-07T10:51:50.266Z,0.47
2022-09-07T10:54:35.239Z,0.70
2022-09-07T10:57:11.351Z,0.85
2022-09-07T11:00:10.387Z,0.50
2022-09-07T11:03:30.879Z,0.40
2022-09-07T11:06:22.036Z,0.40
2022-09-07T11:09:20.027Z,0.82
2022-09-07T11:12:02.433Z,0.50
2022-09-07T11:14:57.815Z,0.52
2022-09-07T11:17:28.930Z,0.50
2022-09-07T11:20:27.140Z,0.52
2022-09-07T11:23:18.278Z,0.65
2022-09-07T11:25:57.983Z,0.50
2022-09-07T11:28:36.891Z,0.60
2022-09-07T11:31:22.203Z,0.80
2022-09-07T11:34:26.288Z,0.40
2022-09-07T11:37:25.476Z,0.50
2022-09-07T11:40:09.964Z,0.60
2022-09-07T11:42:48.110Z,0.55
2022-09-07T11:45:33.453Z,1.00
2022-09-07T11:48:30.285Z,0.52
2022-09-07T11:51:08.570Z,0.57
2022-09-07T11:53:44.395Z,0.60
2022-09-07T11:56:36.774Z,0.55
2022-09-07T11:59:34.828Z,0.75
2022-09-07T12:02:58.418Z,0.98
2022-09-07T12:06:13.826Z,0.60
2022-09-07T12:09:08.130Z,1.17
2022-09-07T12:11:59.646Z,0.70
2022-09-07T12:14:56.469Z,0.75
2022-09-07T12:17:30.989Z,0.60
2022-09-07T12:20:20.963Z,0.70
2022-09-07T12:23:16.075Z,0.70
2022-09-07T12:25:50.159Z,0.57
2022-09-07T12:28:23.098Z,0.50
2022-09-07T12:31:04.320Z,0.70
2022-09-07T12:33:37.669Z,1.00
2022-09-07T12:36:47.242Z,0.57
2022-09-07T12:39:33.253Z,0.73
2022-09-07T12:45:29.743Z,1.02
2022-09-07T12:47:59.789Z,0.55
2022-09-07T12:50:39.478Z,0.80
2022-09-07T12:56:16.393Z,0.60
2022-09-07T12:59:00.836Z,0.77
2022-09-07T13:01:44.281Z,0.60
2022-09-07T13:04:12.644Z,0.63
2022-09-07T13:07:36.228Z,0.52
2022-09-07T13:10:22.806Z,0.50
2022-09-07T13:12:53.168Z,1.08
2022-09-07T13:15:55.583Z,0.52
2022-09-07T13:18:28.662Z,0.45
2022-09-07T13:21:07.767Z,0.50
2022-09-07T13:27:20.901Z,0.60
2022-09-07T13:29:59.392Z,0.63
2022-09-07T13:35:19.809Z,0.50
2022-09-07T13:40:48.284Z,0.68
2022-09-07T13:43:24.468Z,0.57
2022-09-07T13:45:54.429Z,0.63
2022-09-07T13:48:54.345Z,0.52
2022-09-07T13:51:26.986Z,0.60
2022-09-07T13:54:06.320Z,0.65
2022-09-07T13:56:55.157Z,0.43
2022-09-07T13:59:31.152Z,0.50
2022-09-07T14:01:58.951Z,0.50
2022-09-07T14:04:44.318Z,0.75
2022-09-07T14:07:20.831Z,0.43
2022-09-07T14:09:51.275Z,0.55
2022-09-07T14:12:21.812Z,0.40
2022-09-07T14:15:31.912Z,0.70
2022-09-07T14:18:15.078Z,0.40
2022-09-07T14:20:53.681Z,0.68
2022-09-07T14:23:31.986Z,0.50
2022-09-07T14:26:24.786Z,0.47
2022-09-07T14:28:54.759Z,0.50
2022-09-07T14:31:24.959Z,0.70
2022-09-07T14:34:00.773Z,0.68
2022-09-07T14:36:45.737Z,0.40
2022-09-07T14:39:17.123Z,0.55
2022-09-07T14:41:45.239Z,0.55
2022-09-07T14:44:47.329Z,0.50
2022-09-07T14:47:33.914Z,0.40
2022-09-07T14:50:06.835Z,0.28
2022-09-07T14:53:33.190Z,0.60
2022-09-07T14:55:36.559Z,0.65
2022-09-07T14:58:15.240Z,0.30
2022-09-07T15:03:38.764Z,0.40
2022-09-07T15:06:07.781Z,0.57
2022-09-07T15:08:48.710Z,0.50
2022-09-07T15:11:34.375Z,0.50
2022-09-07T15:14:20.413Z,0.40
2022-09-07T15:19:50.343Z,0.30
2022-09-07T15:22:18.841Z,0.50
2022-09-07T15:24:49.998Z,0.35
2022-09-07T15:27:27.025Z,0.43
2022-09-07T15:29:53.937Z,0.38
2022-09-07T15:32:20.787Z,0.60
2022-09-07T15:34:47.566Z,0.50
2022-09-07T15:40:01.927Z,0.40
2022-09-07T15:45:16.236Z,0.40
2022-09-07T15:47:52.123Z,0.40
2022-09-07T15:50:23.073Z,0.45
2022-09-07T15:52:50.688Z,0.40
2022-09-07T15:55:17.893Z,0.35
2022-09-07T15:57:50.101Z,0.30
2022-09-07T16:00:18.599Z,0.45
2022-09-07T16:03:07.237Z,0.40
2022-09-07T16:05:34.816Z,0.20
2022-09-07T16:10:55.156Z,0.50
2022-09-07T16:13:24.135Z,0.50
2022-09-07T16:15:51.790Z,0.40
2022-09-07T16:18:18.969Z,0.40
2022-09-07T16:20:46.032Z,0.40
2022-09-07T16:23:15.658Z,0.30
2022-09-07T16:25:55.610Z,0.55
2022-09-07T16:28:22.665Z,0.65
2022-09-07T16:30:49.529Z,1.00
2022-09-07T16:33:16.433Z,0.60
2022-09-07T16:35:43.290Z,0.57
2022-09-07T16:40:58.096Z,0.70
2022-09-07T16:43:26.995Z,0.95
2022-09-07T16:46:07.089Z,0.80
2022-09-07T16:48:36.087Z,0.68
2022-09-07T16:51:04.951Z,0.60
2022-09-07T16:53:35.104Z,0.60
2022-09-07T16:56:17.955Z,0.80
2022-09-07T16:58:48.906Z,0.77
2022-09-07T17:01:20.705Z,0.90
2022-09-07T17:03:51.381Z,0.70
2022-09-07T17:06:21.606Z,0.80
2022-09-07T17:08:48.375Z,1.17
2022-09-07T17:11:25.277Z,1.10
2022-09-07T17:13:53.741Z,1.00
2022-09-07T17:16:33.459Z,1.00
2022-09-07T17:21:53.818Z,1.10
2022-09-07T17:24:20.952Z,0.90
2022-09-07T17:26:48.203Z,0.70
2022-09-07T17:29:15.450Z,0.68
2022-09-07T17:34:32.506Z,1.10
2022-09-07T17:37:00.683Z,1.00
2022-09-07T17:39:28.771Z,1.30
2022-09-07T17:41:55.887Z,1.25
2022-09-07T17:44:30.732Z,1.10
2022-09-07T17:47:04.339Z,1.50
2022-09-07T17:49:31.166Z,1.38
2022-09-07T17:51:59.107Z,1.35
2022-09-07T17:54:28.695Z,1.75
2022-09-07T17:56:55.719Z,1.02
2022-09-07T18:02:13.994Z,1.17
2022-09-07T18:04:41.138Z,0.90
2022-09-07T18:07:11.619Z,1.05
2022-09-07T18:09:38.465Z,1.20
2022-09-07T18:12:05.636Z,0.85
2022-09-07T18:14:32.598Z,1.20
2022-09-07T18:16:59.411Z,1.13
2022-09-07T18:19:26.250Z,1.15
2022-09-07T18:21:53.150Z,1.00
2022-09-07T18:24:23.744Z,0.93
2022-09-07T18:29:34.090Z,0.85
2022-09-07T18:32:07.987Z,0.95
2022-09-07T18:34:37.731Z,1.30
2022-09-07T18:37:05.991Z,1.50
2022-09-07T18:39:35.266Z,1.30
2022-09-07T18:42:02.243Z,1.58
2022-09-07T18:47:23.256Z,1.48
2022-09-07T18:49:55.045Z,1.48
2022-09-07T18:55:10.014Z,1.17
2022-09-07T18:57:37.641Z,1.75
2022-09-07T19:00:08.949Z,1.23
2022-09-07T19:02:36.371Z,1.00
2022-09-07T19:07:50.367Z,1.00
2022-09-07T19:10:17.819Z,1.40
2022-09-07T19:12:46.055Z,1.17
2022-09-07T19:15:14.243Z,1.33
2022-09-07T19:17:41.068Z,1.20
2022-09-07T19:20:08.659Z,1.05
2022-09-07T19:22:35.450Z,0.90
2022-09-07T19:25:02.223Z,1.52
2022-09-07T19:27:29.153Z,1.00
2022-09-07T19:29:56.609Z,0.65
2022-09-07T19:32:25.463Z,1.40
2022-09-07T19:34:55.437Z,1.10
2022-09-07T19:37:27.531Z,1.00
2022-09-07T19:39:57.239Z,0.90
2022-09-07T19:42:25.648Z,0.90
2022-09-07T19:44:53.081Z,1.00
2022-09-07T19:47:20.381Z,0.90
2022-09-07T19:49:48.143Z,1.20
2022-09-07T19:52:15.412Z,0.85
2022-09-07T19:54:42.201Z,1.00
2022-09-07T19:57:09.160Z,0.93
2022-09-07T19:59:35.925Z,1.08
2022-09-07T20:02:02.731Z,1.27
2022-09-07T20:04:29.674Z,1.20
2022-09-07T20:06:56.683Z,1.00
2022-09-07T20:09:23.946Z,1.23
2022-09-07T20:11:51.326Z,1.20
2022-09-07T20:14:19.215Z,1.42
2022-09-07T20:16:46.199Z,1.40
2022-09-07T20:19:17.414Z,1.05
2022-09-07T20:21:44.327Z,1.50
2022-09-07T20:24:12.818Z,0.90
2022-09-07T20:26:39.974Z,1.02
2022-09-07T20:31:54.343Z,1.08
2022-09-07T20:34:21.360Z,1.13
2022-09-07T20:36:52.305Z,1.33
2022-09-07T20:39:20.397Z,1.38
2022-09-07T20:41:47.471Z,1.45
2022-09-07T20:44:16.367Z,1.33
2022-09-07T20:46:43.808Z,1.10
2022-09-07T20:49:10.803Z,1.00
2022-09-07T20:51:38.765Z,1.42
2022-09-07T20:54:07.010Z,1.27
2022-09-07T20:56:33.927Z,1.05
2022-09-07T20:59:03.956Z,1.17
2022-09-07T21:01:32.384Z,1.00
2022-09-07T21:04:01.195Z,1.25
2022-09-07T21:06:31.084Z,1.50
2022-09-07T21:08:59.077Z,1.60
2022-09-07T21:11:35.415Z,1.27
2022-09-07T21:14:11.413Z,1.02
2022-09-07T21:16:38.405Z,1.25
2022-09-07T21:19:10.876Z,1.23
2022-09-07T21:21:41.202Z,1.35
2022-09-07T21:24:20.957Z,1.38
2022-09-07T21:26:49.626Z,1.30
2022-09-07T21:29:25.664Z,1.50
2022-09-07T21:31:54.681Z,1.10
2022-09-07T21:34:22.846Z,1.17
2022-09-07T21:36:50.198Z,1.50
2022-09-07T21:39:17.300Z,1.15
2022-09-07T21:41:45.542Z,1.13
2022-09-07T21:44:15.273Z,1.15
2022-09-07T21:46:43.679Z,1.00
2022-09-07T21:49:11.153Z,1.52
2022-09-07T21:51:38.145Z,1.17
2022-09-07T21:54:05.067Z,1.30
2022-09-07T21:56:32.401Z,1.00
2022-09-07T21:59:02.286Z,1.52
2022-09-07T22:01:30.739Z,1.20
2022-09-07T22:04:04.086Z,1.50
2022-09-07T22:06:32.359Z,1.40
2022-09-07T22:09:00.703Z,1.48
2022-09-07T22:11:29.784Z,1.30
2022-09-07T22:14:03.093Z,1.25
2022-09-07T22:16:32.974Z,1.30
2022-09-07T22:19:00.144Z,1.10
2022-09-07T22:21:29.536Z,1.20
2022-09-07T22:24:00.108Z,1.15
2022-09-07T22:26:31.553Z,1.52
2022-09-07T22:28:58.994Z,1.23
2022-09-07T22:31:35.480Z,1.70
2022-09-07T22:34:05.131Z,1.50
2022-09-07T22:36:35.791Z,1.30
2022-09-07T22:39:08.984Z,1.40
2022-09-07T22:41:38.814Z,1.40
2022-09-07T22:44:10.054Z,1.20
2022-09-07T22:46:39.813Z,1.08
2022-09-07T22:49:08.111Z,1.77
2022-09-07T22:51:35.117Z,1.77
2022-09-07T22:54:01.889Z,1.65
2022-09-07T22:56:32.749Z,1.45
2022-09-07T22:59:10.366Z,2.00
2022-09-07T23:01:38.046Z,1.63
2022-09-07T23:04:06.253Z,1.88
2022-09-07T23:06:37.639Z,1.13
2022-09-07T23:09:12.084Z,1.30
2022-09-07T23:11:39.502Z,1.50
2022-09-07T23:14:12.899Z,1.50
2022-09-07T23:16:39.890Z,1.80
2022-09-07T23:19:07.135Z,0.90
2022-09-07T23:21:34.026Z,1.33
2022-09-07T23:24:01.336Z,1.20
2022-09-07T23:26:31.072Z,1.10
2022-09-07T23:29:01.652Z,1.25
2022-09-07T23:31:33.304Z,1.38
2022-09-07T23:34:01.784Z,1.30
2022-09-07T23:36:29.813Z,1.25
2022-09-07T23:38:59.495Z,1.25
2022-09-07T23:41:27.387Z,1.00
2022-09-07T23:43:55.360Z,1.50
2022-09-07T23:46:22.265Z,1.45
2022-09-07T23:48:50.661Z,1.33
2022-09-07T23:51:21.501Z,1.40
2022-09-07T23:53:50.193Z,1.48
2022-09-07T23:56:17.105Z,1.30
2022-09-07T23:58:43.981Z,1.33
